sensor_id;sensor_type;location;lat;lon;timestamp;P1;durP1;ratioP1;P2;durP2;ratioP2
27558;SDS011;15002;52.028;5.670;2022-08-21T00:00:17;7.40;;;4.60;;
27558;SDS011;15002;52.028;5.670;2022-08-21T00:02:46;7.93;;;4.53;;
27558;SDS011;15002;52.028;5.670;2022-08-21T00:05:18;8.05;;;4.60;;
27558;SDS011;15002;52.028;5.670;2022-08-21T00:07:43;11.23;;;5.03;;
27558;SDS011;15002;52.028;5.670;2022-08-21T00:10:10;9.75;;;5.20;;
27558;SDS011;15002;52.028;5.670;2022-08-21T00:12:37;11.70;;;5.13;;
27558;SDS011;15002;52.028;5.670;2022-08-21T00:15:04;9.23;;;4.60;;
27558;SDS011;15002;52.028;5.670;2022-08-21T00:17:31;8.48;;;5.05;;
27558;SDS011;15002;52.028;5.670;2022-08-21T00:19:57;6.50;;;4.55;;
27558;SDS011;15002;52.028;5.670;2022-08-21T00:22:22;7.15;;;5.05;;
27558;SDS011;15002;52.028;5.670;2022-08-21T00:24:48;12.38;;;5.57;;
27558;SDS011;15002;52.028;5.670;2022-08-21T00:27:14;9.02;;;5.28;;
27558;SDS011;15002;52.028;5.670;2022-08-21T00:29:40;6.13;;;4.90;;
27558;SDS011;15002;52.028;5.670;2022-08-21T00:32:06;9.57;;;4.95;;
27558;SDS011;15002;52.028;5.670;2022-08-21T00:34:31;8.65;;;5.18;;
27558;SDS011;15002;52.028;5.670;2022-08-21T00:36:57;6.68;;;5.30;;
27558;SDS011;15002;52.028;5.670;2022-08-21T00:39:22;7.95;;;5.07;;
27558;SDS011;15002;52.028;5.670;2022-08-21T00:41:48;11.23;;;5.90;;
27558;SDS011;15002;52.028;5.670;2022-08-21T00:44:15;9.45;;;5.68;;
27558;SDS011;15002;52.028;5.670;2022-08-21T00:46:41;10.20;;;6.25;;
27558;SDS011;15002;52.028;5.670;2022-08-21T00:49:08;11.45;;;5.70;;
27558;SDS011;15002;52.028;5.670;2022-08-21T00:51:47;10.32;;;5.60;;
27558;SDS011;15002;52.028;5.670;2022-08-21T00:54:15;8.10;;;5.43;;
27558;SDS011;15002;52.028;5.670;2022-08-21T00:56:43;10.07;;;5.60;;
27558;SDS011;15002;52.028;5.670;2022-08-21T00:59:09;7.72;;;5.30;;
27558;SDS011;15002;52.028;5.670;2022-08-21T01:01:35;11.02;;;5.95;;
27558;SDS011;15002;52.028;5.670;2022-08-21T01:04:01;9.20;;;5.70;;
27558;SDS011;15002;52.028;5.670;2022-08-21T01:06:27;7.72;;;5.75;;
27558;SDS011;15002;52.028;5.670;2022-08-21T01:08:52;8.98;;;5.03;;
27558;SDS011;15002;52.028;5.670;2022-08-21T01:11:18;6.97;;;5.32;;
27558;SDS011;15002;52.028;5.670;2022-08-21T01:13:45;9.43;;;5.70;;
27558;SDS011;15002;52.028;5.670;2022-08-21T01:16:12;9.23;;;5.50;;
27558;SDS011;15002;52.028;5.670;2022-08-21T01:18:42;8.85;;;5.20;;
27558;SDS011;15002;52.028;5.670;2022-08-21T01:21:10;9.32;;;6.05;;
27558;SDS011;15002;52.028;5.670;2022-08-21T01:23:39;7.85;;;5.85;;
27558;SDS011;15002;52.028;5.670;2022-08-21T01:26:08;10.80;;;6.03;;
27558;SDS011;15002;52.028;5.670;2022-08-21T01:28:37;9.60;;;5.55;;
27558;SDS011;15002;52.028;5.670;2022-08-21T01:31:07;8.57;;;5.78;;
27558;SDS011;15002;52.028;5.670;2022-08-21T01:33:34;9.48;;;6.25;;
27558;SDS011;15002;52.028;5.670;2022-08-21T01:36:00;10.35;;;5.30;;
27558;SDS011;15002;52.028;5.670;2022-08-21T01:38:26;9.40;;;6.20;;
27558;SDS011;15002;52.028;5.670;2022-08-21T01:40:52;9.65;;;6.47;;
27558;SDS011;15002;52.028;5.670;2022-08-21T01:43:17;10.23;;;6.53;;
27558;SDS011;15002;52.028;5.670;2022-08-21T01:45:43;8.88;;;5.95;;
27558;SDS011;15002;52.028;5.670;2022-08-21T01:48:09;11.13;;;5.75;;
27558;SDS011;15002;52.028;5.670;2022-08-21T01:50:34;8.27;;;5.63;;
27558;SDS011;15002;52.028;5.670;2022-08-21T01:53:00;11.30;;;6.05;;
27558;SDS011;15002;52.028;5.670;2022-08-21T01:55:26;9.90;;;6.32;;
27558;SDS011;15002;52.028;5.670;2022-08-21T01:57:52;10.07;;;6.72;;
27558;SDS011;15002;52.028;5.670;2022-08-21T02:00:19;9.80;;;6.15;;
27558;SDS011;15002;52.028;5.670;2022-08-21T02:02:47;9.18;;;6.70;;
27558;SDS011;15002;52.028;5.670;2022-08-21T02:05:14;9.05;;;5.95;;
27558;SDS011;15002;52.028;5.670;2022-08-21T02:07:40;12.88;;;7.30;;
27558;SDS011;15002;52.028;5.670;2022-08-21T02:10:16;9.65;;;6.03;;
27558;SDS011;15002;52.028;5.670;2022-08-21T02:12:44;11.80;;;6.68;;
27558;SDS011;15002;52.028;5.670;2022-08-21T02:15:10;10.07;;;6.18;;
27558;SDS011;15002;52.028;5.670;2022-08-21T02:17:37;9.25;;;6.18;;
27558;SDS011;15002;52.028;5.670;2022-08-21T02:20:08;8.10;;;6.18;;
27558;SDS011;15002;52.028;5.670;2022-08-21T02:22:35;10.40;;;6.25;;
27558;SDS011;15002;52.028;5.670;2022-08-21T02:25:00;9.80;;;6.63;;
27558;SDS011;15002;52.028;5.670;2022-08-21T02:27:26;9.07;;;6.75;;
27558;SDS011;15002;52.028;5.670;2022-08-21T02:29:52;7.97;;;6.40;;
27558;SDS011;15002;52.028;5.670;2022-08-21T02:32:18;11.63;;;7.45;;
27558;SDS011;15002;52.028;5.670;2022-08-21T02:34:46;8.40;;;6.68;;
27558;SDS011;15002;52.028;5.670;2022-08-21T02:37:12;9.20;;;7.07;;
27558;SDS011;15002;52.028;5.670;2022-08-21T02:39:37;9.68;;;6.90;;
27558;SDS011;15002;52.028;5.670;2022-08-21T02:42:03;10.70;;;7.18;;
27558;SDS011;15002;52.028;5.670;2022-08-21T02:44:29;8.80;;;6.82;;
27558;SDS011;15002;52.028;5.670;2022-08-21T02:46:54;9.63;;;6.50;;
27558;SDS011;15002;52.028;5.670;2022-08-21T02:49:20;9.77;;;7.20;;
27558;SDS011;15002;52.028;5.670;2022-08-21T02:51:46;12.15;;;7.28;;
27558;SDS011;15002;52.028;5.670;2022-08-21T02:54:11;10.98;;;7.28;;
27558;SDS011;15002;52.028;5.670;2022-08-21T02:56:37;8.95;;;6.70;;
27558;SDS011;15002;52.028;5.670;2022-08-21T02:59:02;11.13;;;7.07;;
27558;SDS011;15002;52.028;5.670;2022-08-21T03:01:28;14.18;;;7.20;;
27558;SDS011;15002;52.028;5.670;2022-08-21T03:03:54;9.60;;;7.38;;
27558;SDS011;15002;52.028;5.670;2022-08-21T03:06:20;9.50;;;7.80;;
27558;SDS011;15002;52.028;5.670;2022-08-21T03:08:47;13.10;;;7.65;;
27558;SDS011;15002;52.028;5.670;2022-08-21T03:11:14;8.65;;;7.75;;
27558;SDS011;15002;52.028;5.670;2022-08-21T03:13:40;11.43;;;7.60;;
27558;SDS011;15002;52.028;5.670;2022-08-21T03:16:06;12.80;;;8.00;;
27558;SDS011;15002;52.028;5.670;2022-08-21T03:18:33;12.55;;;7.57;;
27558;SDS011;15002;52.028;5.670;2022-08-21T03:20:59;11.13;;;8.00;;
27558;SDS011;15002;52.028;5.670;2022-08-21T03:23:25;14.18;;;8.07;;
27558;SDS011;15002;52.028;5.670;2022-08-21T03:25:50;13.52;;;8.30;;
27558;SDS011;15002;52.028;5.670;2022-08-21T03:28:18;11.18;;;8.43;;
27558;SDS011;15002;52.028;5.670;2022-08-21T03:30:46;13.35;;;7.65;;
27558;SDS011;15002;52.028;5.670;2022-08-21T03:33:14;11.23;;;8.07;;
27558;SDS011;15002;52.028;5.670;2022-08-21T03:35:40;15.40;;;8.15;;
27558;SDS011;15002;52.028;5.670;2022-08-21T03:38:07;11.50;;;7.82;;
27558;SDS011;15002;52.028;5.670;2022-08-21T03:40:33;10.43;;;8.15;;
27558;SDS011;15002;52.028;5.670;2022-08-21T03:42:59;13.07;;;7.90;;
27558;SDS011;15002;52.028;5.670;2022-08-21T03:45:25;11.60;;;8.15;;
27558;SDS011;15002;52.028;5.670;2022-08-21T03:50:21;10.23;;;8.52;;
27558;SDS011;15002;52.028;5.670;2022-08-21T03:52:48;11.10;;;8.30;;
27558;SDS011;15002;52.028;5.670;2022-08-21T03:55:14;11.40;;;8.15;;
27558;SDS011;15002;52.028;5.670;2022-08-21T03:57:39;12.85;;;7.75;;
27558;SDS011;15002;52.028;5.670;2022-08-21T04:00:05;16.52;;;8.43;;
27558;SDS011;15002;52.028;5.670;2022-08-21T04:02:33;10.85;;;8.30;;
27558;SDS011;15002;52.028;5.670;2022-08-21T04:04:59;10.60;;;7.85;;
27558;SDS011;15002;52.028;5.670;2022-08-21T04:07:25;12.38;;;8.45;;
27558;SDS011;15002;52.028;5.670;2022-08-21T04:09:50;11.02;;;7.53;;
27558;SDS011;15002;52.028;5.670;2022-08-21T04:12:16;10.48;;;8.23;;
27558;SDS011;15002;52.028;5.670;2022-08-21T04:14:41;10.65;;;8.10;;
27558;SDS011;15002;52.028;5.670;2022-08-21T04:17:07;10.07;;;7.82;;
27558;SDS011;15002;52.028;5.670;2022-08-21T04:19:33;11.88;;;8.27;;
27558;SDS011;15002;52.028;5.670;2022-08-21T04:21:58;12.48;;;8.05;;
27558;SDS011;15002;52.028;5.670;2022-08-21T04:24:24;12.90;;;8.20;;
27558;SDS011;15002;52.028;5.670;2022-08-21T04:26:49;10.77;;;8.57;;
27558;SDS011;15002;52.028;5.670;2022-08-21T04:29:15;10.55;;;8.30;;
27558;SDS011;15002;52.028;5.670;2022-08-21T04:31:41;11.95;;;8.10;;
27558;SDS011;15002;52.028;5.670;2022-08-21T04:34:08;11.18;;;8.18;;
27558;SDS011;15002;52.028;5.670;2022-08-21T04:36:34;14.32;;;8.88;;
27558;SDS011;15002;52.028;5.670;2022-08-21T04:39:00;13.43;;;8.40;;
27558;SDS011;15002;52.028;5.670;2022-08-21T04:41:26;12.38;;;8.98;;
27558;SDS011;15002;52.028;5.670;2022-08-21T04:43:53;15.35;;;9.80;;
27558;SDS011;15002;52.028;5.670;2022-08-21T04:46:20;12.75;;;8.90;;
27558;SDS011;15002;52.028;5.670;2022-08-21T04:48:46;14.50;;;9.75;;
27558;SDS011;15002;52.028;5.670;2022-08-21T04:51:17;13.43;;;8.70;;
27558;SDS011;15002;52.028;5.670;2022-08-21T04:53:50;12.55;;;8.80;;
27558;SDS011;15002;52.028;5.670;2022-08-21T04:56:41;13.52;;;8.77;;
27558;SDS011;15002;52.028;5.670;2022-08-21T04:59:21;12.13;;;9.00;;
27558;SDS011;15002;52.028;5.670;2022-08-21T05:01:49;13.90;;;8.45;;
27558;SDS011;15002;52.028;5.670;2022-08-21T05:04:17;15.93;;;8.95;;
27558;SDS011;15002;52.028;5.670;2022-08-21T05:06:46;23.10;;;9.40;;
27558;SDS011;15002;52.028;5.670;2022-08-21T05:09:13;14.05;;;8.30;;
27558;SDS011;15002;52.028;5.670;2022-08-21T05:11:41;14.73;;;9.02;;
27558;SDS011;15002;52.028;5.670;2022-08-21T05:14:08;14.50;;;8.95;;
27558;SDS011;15002;52.028;5.670;2022-08-21T05:16:34;14.73;;;9.20;;
27558;SDS011;15002;52.028;5.670;2022-08-21T05:19:00;13.27;;;9.27;;
27558;SDS011;15002;52.028;5.670;2022-08-21T05:21:26;12.75;;;8.88;;
27558;SDS011;15002;52.028;5.670;2022-08-21T05:23:51;13.60;;;9.32;;
27558;SDS011;15002;52.028;5.670;2022-08-21T05:26:17;16.00;;;9.55;;
27558;SDS011;15002;52.028;5.670;2022-08-21T05:28:43;16.33;;;9.40;;
27558;SDS011;15002;52.028;5.670;2022-08-21T05:31:08;19.23;;;10.00;;
27558;SDS011;15002;52.028;5.670;2022-08-21T05:33:34;15.52;;;9.40;;
27558;SDS011;15002;52.028;5.670;2022-08-21T05:36:00;13.30;;;9.50;;
27558;SDS011;15002;52.028;5.670;2022-08-21T05:38:26;17.10;;;9.82;;
27558;SDS011;15002;52.028;5.670;2022-08-21T05:40:53;16.33;;;10.18;;
27558;SDS011;15002;52.028;5.670;2022-08-21T05:43:19;13.60;;;9.40;;
27558;SDS011;15002;52.028;5.670;2022-08-21T05:45:45;13.43;;;9.38;;
27558;SDS011;15002;52.028;5.670;2022-08-21T05:48:12;11.98;;;9.63;;
27558;SDS011;15002;52.028;5.670;2022-08-21T05:50:40;14.35;;;9.23;;
27558;SDS011;15002;52.028;5.670;2022-08-21T05:53:07;14.25;;;9.60;;
27558;SDS011;15002;52.028;5.670;2022-08-21T05:55:35;14.80;;;9.40;;
27558;SDS011;15002;52.028;5.670;2022-08-21T05:58:02;13.02;;;10.00;;
27558;SDS011;15002;52.028;5.670;2022-08-21T06:00:28;15.40;;;9.82;;
27558;SDS011;15002;52.028;5.670;2022-08-21T06:02:54;10.88;;;9.65;;
27558;SDS011;15002;52.028;5.670;2022-08-21T06:05:19;20.27;;;12.00;;
27558;SDS011;15002;52.028;5.670;2022-08-21T06:07:45;14.23;;;10.05;;
27558;SDS011;15002;52.028;5.670;2022-08-21T06:10:11;15.38;;;10.20;;
27558;SDS011;15002;52.028;5.670;2022-08-21T06:12:36;14.75;;;9.70;;
27558;SDS011;15002;52.028;5.670;2022-08-21T06:15:02;13.25;;;9.57;;
27558;SDS011;15002;52.028;5.670;2022-08-21T06:17:28;16.55;;;10.13;;
27558;SDS011;15002;52.028;5.670;2022-08-21T06:19:54;13.82;;;9.13;;
27558;SDS011;15002;52.028;5.670;2022-08-21T06:22:20;14.23;;;9.10;;
27558;SDS011;15002;52.028;5.670;2022-08-21T06:24:47;16.05;;;9.43;;
27558;SDS011;15002;52.028;5.670;2022-08-21T06:27:12;16.73;;;9.05;;
27558;SDS011;15002;52.028;5.670;2022-08-21T06:29:38;12.95;;;8.85;;
27558;SDS011;15002;52.028;5.670;2022-08-21T06:32:04;14.90;;;8.15;;
27558;SDS011;15002;52.028;5.670;2022-08-21T06:34:35;14.77;;;7.72;;
27558;SDS011;15002;52.028;5.670;2022-08-21T06:37:03;12.50;;;7.38;;
27558;SDS011;15002;52.028;5.670;2022-08-21T06:39:28;11.25;;;6.90;;
27558;SDS011;15002;52.028;5.670;2022-08-21T06:41:54;13.15;;;6.35;;
27558;SDS011;15002;52.028;5.670;2022-08-21T06:44:20;10.43;;;6.75;;
27558;SDS011;15002;52.028;5.670;2022-08-21T06:46:46;13.73;;;6.30;;
27558;SDS011;15002;52.028;5.670;2022-08-21T06:49:11;13.68;;;6.45;;
27558;SDS011;15002;52.028;5.670;2022-08-21T06:51:37;9.27;;;5.60;;
27558;SDS011;15002;52.028;5.670;2022-08-21T06:54:03;9.32;;;5.72;;
27558;SDS011;15002;52.028;5.670;2022-08-21T06:56:30;11.15;;;5.78;;
27558;SDS011;15002;52.028;5.670;2022-08-21T06:58:55;12.15;;;5.30;;
27558;SDS011;15002;52.028;5.670;2022-08-21T07:01:22;12.73;;;5.85;;
27558;SDS011;15002;52.028;5.670;2022-08-21T07:03:49;10.73;;;5.63;;
27558;SDS011;15002;52.028;5.670;2022-08-21T07:06:15;12.15;;;5.30;;
27558;SDS011;15002;52.028;5.670;2022-08-21T07:08:42;10.68;;;5.15;;
27558;SDS011;15002;52.028;5.670;2022-08-21T07:11:13;10.48;;;4.57;;
27558;SDS011;15002;52.028;5.670;2022-08-21T07:13:42;11.00;;;5.22;;
27558;SDS011;15002;52.028;5.670;2022-08-21T07:16:08;9.10;;;4.70;;
27558;SDS011;15002;52.028;5.670;2022-08-21T07:18:34;13.27;;;4.97;;
27558;SDS011;15002;52.028;5.670;2022-08-21T07:21:03;10.05;;;4.35;;
27558;SDS011;15002;52.028;5.670;2022-08-21T07:23:35;12.23;;;5.22;;
27558;SDS011;15002;52.028;5.670;2022-08-21T07:26:05;10.80;;;4.88;;
27558;SDS011;15002;52.028;5.670;2022-08-21T07:28:31;11.25;;;4.65;;
27558;SDS011;15002;52.028;5.670;2022-08-21T07:30:59;11.32;;;4.40;;
27558;SDS011;15002;52.028;5.670;2022-08-21T07:33:26;14.43;;;5.25;;
27558;SDS011;15002;52.028;5.670;2022-08-21T07:35:53;11.82;;;4.78;;
27558;SDS011;15002;52.028;5.670;2022-08-21T07:38:19;15.43;;;5.00;;
27558;SDS011;15002;52.028;5.670;2022-08-21T07:40:46;12.32;;;4.80;;
27558;SDS011;15002;52.028;5.670;2022-08-21T07:43:13;13.15;;;4.80;;
27558;SDS011;15002;52.028;5.670;2022-08-21T07:45:41;14.23;;;4.60;;
27558;SDS011;15002;52.028;5.670;2022-08-21T07:48:07;12.43;;;4.78;;
27558;SDS011;15002;52.028;5.670;2022-08-21T07:50:33;9.25;;;4.22;;
27558;SDS011;15002;52.028;5.670;2022-08-21T07:52:59;8.52;;;4.47;;
27558;SDS011;15002;52.028;5.670;2022-08-21T07:55:24;11.90;;;3.97;;
27558;SDS011;15002;52.028;5.670;2022-08-21T07:57:50;11.63;;;4.25;;
27558;SDS011;15002;52.028;5.670;2022-08-21T08:00:17;12.43;;;4.80;;
27558;SDS011;15002;52.028;5.670;2022-08-21T08:02:47;11.30;;;4.22;;
27558;SDS011;15002;52.028;5.670;2022-08-21T08:05:15;10.35;;;4.68;;
27558;SDS011;15002;52.028;5.670;2022-08-21T08:07:42;13.18;;;4.38;;
27558;SDS011;15002;52.028;5.670;2022-08-21T08:10:08;9.25;;;5.95;;
27558;SDS011;15002;52.028;5.670;2022-08-21T08:12:35;9.55;;;4.63;;
27558;SDS011;15002;52.028;5.670;2022-08-21T08:15:06;11.68;;;4.47;;
27558;SDS011;15002;52.028;5.670;2022-08-21T08:17:33;9.25;;;4.35;;
27558;SDS011;15002;52.028;5.670;2022-08-21T08:19:59;11.18;;;4.40;;
27558;SDS011;15002;52.028;5.670;2022-08-21T08:22:26;13.60;;;4.72;;
27558;SDS011;15002;52.028;5.670;2022-08-21T08:24:52;13.52;;;4.30;;
27558;SDS011;15002;52.028;5.670;2022-08-21T08:27:19;11.93;;;4.07;;
27558;SDS011;15002;52.028;5.670;2022-08-21T08:29:45;11.38;;;4.22;;
27558;SDS011;15002;52.028;5.670;2022-08-21T08:32:11;10.52;;;4.20;;
27558;SDS011;15002;52.028;5.670;2022-08-21T08:34:37;10.63;;;3.88;;
27558;SDS011;15002;52.028;5.670;2022-08-21T08:37:05;9.70;;;3.92;;
27558;SDS011;15002;52.028;5.670;2022-08-21T08:39:32;9.65;;;3.97;;
27558;SDS011;15002;52.028;5.670;2022-08-21T08:41:59;9.88;;;4.20;;
27558;SDS011;15002;52.028;5.670;2022-08-21T08:44:31;8.60;;;3.90;;
27558;SDS011;15002;52.028;5.670;2022-08-21T08:46:57;9.43;;;3.95;;
27558;SDS011;15002;52.028;5.670;2022-08-21T08:49:40;9.80;;;4.55;;
27558;SDS011;15002;52.028;5.670;2022-08-21T08:52:22;9.38;;;3.15;;
27558;SDS011;15002;52.028;5.670;2022-08-21T08:55:01;9.00;;;3.53;;
27558;SDS011;15002;52.028;5.670;2022-08-21T08:57:39;13.73;;;4.80;;
27558;SDS011;15002;52.028;5.670;2022-08-21T09:00:10;9.50;;;3.53;;
27558;SDS011;15002;52.028;5.670;2022-08-21T09:02:39;11.43;;;3.80;;
27558;SDS011;15002;52.028;5.670;2022-08-21T09:05:07;7.40;;;2.90;;
27558;SDS011;15002;52.028;5.670;2022-08-21T09:10:20;13.40;;;3.55;;
27558;SDS011;15002;52.028;5.670;2022-08-21T09:18:47;9.30;;;2.50;;
27558;SDS011;15002;52.028;5.670;2022-08-21T09:27:10;9.65;;;3.03;;
27558;SDS011;15002;52.028;5.670;2022-08-21T09:29:39;10.33;;;3.10;;
27558;SDS011;15002;52.028;5.670;2022-08-21T09:32:18;7.20;;;2.20;;
27558;SDS011;15002;52.028;5.670;2022-08-21T09:37:45;8.48;;;2.50;;
27558;SDS011;15002;52.028;5.670;2022-08-21T09:40:36;9.20;;;2.70;;
27558;SDS011;15002;52.028;5.670;2022-08-21T09:45:37;7.63;;;2.30;;
27558;SDS011;15002;52.028;5.670;2022-08-21T09:48:11;9.88;;;2.55;;
27558;SDS011;15002;52.028;5.670;2022-08-21T09:50:39;7.00;;;2.42;;
27558;SDS011;15002;52.028;5.670;2022-08-21T09:53:13;5.18;;;1.77;;
27558;SDS011;15002;52.028;5.670;2022-08-21T09:55:53;6.32;;;2.05;;
27558;SDS011;15002;52.028;5.670;2022-08-21T09:58:42;8.15;;;2.38;;
27558;SDS011;15002;52.028;5.670;2022-08-21T10:01:13;4.72;;;2.05;;
27558;SDS011;15002;52.028;5.670;2022-08-21T10:03:42;10.23;;;2.03;;
27558;SDS011;15002;52.028;5.670;2022-08-21T10:06:09;5.75;;;1.85;;
27558;SDS011;15002;52.028;5.670;2022-08-21T10:08:40;7.80;;;2.10;;
27558;SDS011;15002;52.028;5.670;2022-08-21T10:11:10;8.60;;;2.40;;
27558;SDS011;15002;52.028;5.670;2022-08-21T10:13:51;5.93;;;1.80;;
27558;SDS011;15002;52.028;5.670;2022-08-21T10:16:37;6.68;;;1.83;;
27558;SDS011;15002;52.028;5.670;2022-08-21T10:22:28;9.38;;;2.35;;
27558;SDS011;15002;52.028;5.670;2022-08-21T10:30:13;8.05;;;2.35;;
27558;SDS011;15002;52.028;5.670;2022-08-21T10:33:06;8.10;;;2.13;;
27558;SDS011;15002;52.028;5.670;2022-08-21T10:36:14;5.97;;;2.05;;
27558;SDS011;15002;52.028;5.670;2022-08-21T10:42:01;6.43;;;1.45;;
27558;SDS011;15002;52.028;5.670;2022-08-21T10:55:54;6.32;;;2.13;;
27558;SDS011;15002;52.028;5.670;2022-08-21T10:58:31;6.93;;;2.30;;
27558;SDS011;15002;52.028;5.670;2022-08-21T11:01:27;8.13;;;1.80;;
27558;SDS011;15002;52.028;5.670;2022-08-21T11:04:09;9.02;;;2.17;;
27558;SDS011;15002;52.028;5.670;2022-08-21T11:06:35;7.32;;;2.00;;
27558;SDS011;15002;52.028;5.670;2022-08-21T11:09:12;7.32;;;2.03;;
27558;SDS011;15002;52.028;5.670;2022-08-21T11:17:15;7.38;;;1.85;;
27558;SDS011;15002;52.028;5.670;2022-08-21T11:19:50;6.00;;;1.90;;
27558;SDS011;15002;52.028;5.670;2022-08-21T11:22:26;7.22;;;2.30;;
27558;SDS011;15002;52.028;5.670;2022-08-21T11:25:03;6.57;;;2.28;;
27558;SDS011;15002;52.028;5.670;2022-08-21T11:27:45;6.60;;;2.33;;
27558;SDS011;15002;52.028;5.670;2022-08-21T11:30:17;6.35;;;2.00;;
27558;SDS011;15002;52.028;5.670;2022-08-21T11:51:53;4.15;;;1.60;;
27558;SDS011;15002;52.028;5.670;2022-08-21T11:54:46;5.30;;;1.83;;
27558;SDS011;15002;52.028;5.670;2022-08-21T11:57:28;5.93;;;1.77;;
27558;SDS011;15002;52.028;5.670;2022-08-21T12:05:25;5.85;;;2.28;;
27558;SDS011;15002;52.028;5.670;2022-08-21T12:08:02;5.82;;;1.67;;
27558;SDS011;15002;52.028;5.670;2022-08-21T12:10:32;7.03;;;2.15;;
27558;SDS011;15002;52.028;5.670;2022-08-21T12:13:07;7.07;;;2.30;;
27558;SDS011;15002;52.028;5.670;2022-08-21T12:15:47;5.15;;;2.00;;
27558;SDS011;15002;52.028;5.670;2022-08-21T12:21:20;4.90;;;1.75;;
27558;SDS011;15002;52.028;5.670;2022-08-21T12:26:52;7.30;;;2.10;;
27558;SDS011;15002;52.028;5.670;2022-08-21T12:31:59;9.38;;;2.15;;
27558;SDS011;15002;52.028;5.670;2022-08-21T12:34:38;10.45;;;2.33;;
27558;SDS011;15002;52.028;5.670;2022-08-21T12:39:57;4.38;;;2.10;;
27558;SDS011;15002;52.028;5.670;2022-08-21T12:42:37;4.93;;;1.57;;
27558;SDS011;15002;52.028;5.670;2022-08-21T12:45:13;7.65;;;2.15;;
27558;SDS011;15002;52.028;5.670;2022-08-21T12:47:51;4.80;;;1.88;;
27558;SDS011;15002;52.028;5.670;2022-08-21T12:50:40;7.05;;;2.08;;
27558;SDS011;15002;52.028;5.670;2022-08-21T12:56:01;7.45;;;2.17;;
27558;SDS011;15002;52.028;5.670;2022-08-21T12:58:33;6.68;;;1.88;;
27558;SDS011;15002;52.028;5.670;2022-08-21T13:01:02;3.58;;;1.95;;
27558;SDS011;15002;52.028;5.670;2022-08-21T13:03:28;5.63;;;1.73;;
27558;SDS011;15002;52.028;5.670;2022-08-21T13:05:54;5.00;;;1.90;;
27558;SDS011;15002;52.028;5.670;2022-08-21T13:08:21;5.43;;;2.25;;
27558;SDS011;15002;52.028;5.670;2022-08-21T13:10:55;5.35;;;1.80;;
27558;SDS011;15002;52.028;5.670;2022-08-21T13:13:24;6.38;;;1.90;;
27558;SDS011;15002;52.028;5.670;2022-08-21T13:15:56;4.22;;;1.80;;
27558;SDS011;15002;52.028;5.670;2022-08-21T13:18:32;7.70;;;3.50;;
27558;SDS011;15002;52.028;5.670;2022-08-21T13:21:16;6.15;;;2.22;;
27558;SDS011;15002;52.028;5.670;2022-08-21T13:23:41;6.10;;;2.05;;
27558;SDS011;15002;52.028;5.670;2022-08-21T13:26:18;5.80;;;1.92;;
27558;SDS011;15002;52.028;5.670;2022-08-21T13:28:46;5.50;;;2.00;;
27558;SDS011;15002;52.028;5.670;2022-08-21T13:31:15;3.03;;;1.70;;
27558;SDS011;15002;52.028;5.670;2022-08-21T13:33:46;6.03;;;1.90;;
27558;SDS011;15002;52.028;5.670;2022-08-21T13:36:16;4.22;;;1.85;;
27558;SDS011;15002;52.028;5.670;2022-08-21T13:38:45;5.55;;;1.80;;
27558;SDS011;15002;52.028;5.670;2022-08-21T13:41:27;3.75;;;1.65;;
27558;SDS011;15002;52.028;5.670;2022-08-21T13:44:02;3.20;;;1.80;;
27558;SDS011;15002;52.028;5.670;2022-08-21T13:46:39;2.05;;;1.23;;
27558;SDS011;15002;52.028;5.670;2022-08-21T13:49:06;4.70;;;1.50;;
27558;SDS011;15002;52.028;5.670;2022-08-21T13:51:33;4.70;;;1.67;;
27558;SDS011;15002;52.028;5.670;2022-08-21T13:54:01;3.13;;;1.60;;
27558;SDS011;15002;52.028;5.670;2022-08-21T13:56:43;4.25;;;1.67;;
27558;SDS011;15002;52.028;5.670;2022-08-21T13:59:11;3.67;;;1.45;;
27558;SDS011;15002;52.028;5.670;2022-08-21T14:01:52;6.90;;;1.48;;
27558;SDS011;15002;52.028;5.670;2022-08-21T14:07:20;5.18;;;1.38;;
27558;SDS011;15002;52.028;5.670;2022-08-21T14:09:54;6.60;;;1.27;;
27558;SDS011;15002;52.028;5.670;2022-08-21T14:12:24;5.47;;;1.65;;
27558;SDS011;15002;52.028;5.670;2022-08-21T14:15:01;5.88;;;1.60;;
27558;SDS011;15002;52.028;5.670;2022-08-21T14:17:34;6.00;;;1.27;;
27558;SDS011;15002;52.028;5.670;2022-08-21T14:20:03;6.70;;;1.50;;
27558;SDS011;15002;52.028;5.670;2022-08-21T14:27:33;3.75;;;1.65;;
27558;SDS011;15002;52.028;5.670;2022-08-21T14:30:01;3.40;;;1.42;;
27558;SDS011;15002;52.028;5.670;2022-08-21T14:32:56;5.55;;;1.40;;
27558;SDS011;15002;52.028;5.670;2022-08-21T14:35:22;4.97;;;1.60;;
27558;SDS011;15002;52.028;5.670;2022-08-21T14:37:48;6.93;;;1.83;;
27558;SDS011;15002;52.028;5.670;2022-08-21T14:40:18;5.95;;;2.40;;
27558;SDS011;15002;52.028;5.670;2022-08-21T14:42:46;6.20;;;1.58;;
27558;SDS011;15002;52.028;5.670;2022-08-21T14:47:46;5.32;;;1.77;;
27558;SDS011;15002;52.028;5.670;2022-08-21T14:50:12;2.60;;;1.20;;
27558;SDS011;15002;52.028;5.670;2022-08-21T14:52:39;3.03;;;1.38;;
27558;SDS011;15002;52.028;5.670;2022-08-21T14:55:06;5.70;;;1.52;;
27558;SDS011;15002;52.028;5.670;2022-08-21T14:57:35;5.32;;;1.70;;
27558;SDS011;15002;52.028;5.670;2022-08-21T15:00:03;4.63;;;1.75;;
27558;SDS011;15002;52.028;5.670;2022-08-21T15:02:30;5.43;;;1.58;;
27558;SDS011;15002;52.028;5.670;2022-08-21T15:04:56;6.18;;;1.65;;
27558;SDS011;15002;52.028;5.670;2022-08-21T15:07:21;5.57;;;1.33;;
27558;SDS011;15002;52.028;5.670;2022-08-21T15:09:47;3.47;;;1.45;;
27558;SDS011;15002;52.028;5.670;2022-08-21T15:12:13;8.38;;;1.85;;
27558;SDS011;15002;52.028;5.670;2022-08-21T15:14:40;7.18;;;1.45;;
27558;SDS011;15002;52.028;5.670;2022-08-21T15:17:07;3.63;;;1.63;;
27558;SDS011;15002;52.028;5.670;2022-08-21T15:19:35;5.20;;;1.60;;
27558;SDS011;15002;52.028;5.670;2022-08-21T15:22:02;5.75;;;1.85;;
27558;SDS011;15002;52.028;5.670;2022-08-21T15:24:28;4.72;;;1.70;;
27558;SDS011;15002;52.028;5.670;2022-08-21T15:26:54;5.70;;;2.00;;
27558;SDS011;15002;52.028;5.670;2022-08-21T15:29:21;5.68;;;1.95;;
27558;SDS011;15002;52.028;5.670;2022-08-21T15:31:54;8.10;;;1.70;;
27558;SDS011;15002;52.028;5.670;2022-08-21T15:34:22;4.22;;;1.67;;
27558;SDS011;15002;52.028;5.670;2022-08-21T15:36:48;4.85;;;1.63;;
27558;SDS011;15002;52.028;5.670;2022-08-21T15:39:14;6.53;;;1.40;;
27558;SDS011;15002;52.028;5.670;2022-08-21T15:41:40;5.63;;;1.70;;
27558;SDS011;15002;52.028;5.670;2022-08-21T15:44:06;2.53;;;1.30;;
27558;SDS011;15002;52.028;5.670;2022-08-21T15:46:34;5.68;;;1.90;;
27558;SDS011;15002;52.028;5.670;2022-08-21T15:48:59;4.28;;;1.60;;
27558;SDS011;15002;52.028;5.670;2022-08-21T15:51:25;3.03;;;1.55;;
27558;SDS011;15002;52.028;5.670;2022-08-21T15:53:51;4.13;;;1.60;;
27558;SDS011;15002;52.028;5.670;2022-08-21T15:56:24;6.90;;;1.70;;
27558;SDS011;15002;52.028;5.670;2022-08-21T15:58:52;4.28;;;1.90;;
27558;SDS011;15002;52.028;5.670;2022-08-21T16:01:24;7.05;;;1.90;;
27558;SDS011;15002;52.028;5.670;2022-08-21T16:03:50;4.93;;;2.40;;
27558;SDS011;15002;52.028;5.670;2022-08-21T16:06:18;5.22;;;2.17;;
27558;SDS011;15002;52.028;5.670;2022-08-21T16:08:43;4.80;;;1.80;;
27558;SDS011;15002;52.028;5.670;2022-08-21T16:11:10;5.82;;;1.52;;
27558;SDS011;15002;52.028;5.670;2022-08-21T16:13:39;4.28;;;2.10;;
27558;SDS011;15002;52.028;5.670;2022-08-21T16:16:07;4.63;;;1.95;;
27558;SDS011;15002;52.028;5.670;2022-08-21T16:18:35;4.45;;;1.80;;
27558;SDS011;15002;52.028;5.670;2022-08-21T16:21:01;5.68;;;1.83;;
27558;SDS011;15002;52.028;5.670;2022-08-21T16:23:27;3.65;;;1.73;;
27558;SDS011;15002;52.028;5.670;2022-08-21T16:25:53;5.63;;;2.10;;
27558;SDS011;15002;52.028;5.670;2022-08-21T16:28:19;5.72;;;2.45;;
27558;SDS011;15002;52.028;5.670;2022-08-21T16:30:47;4.30;;;1.83;;